sensor_id;sensor_type;location;lat;lon;timestamp;P1;durP1;ratioP1;P2;durP2;ratioP2
25982;SDS011;13773;48.868;10.730;2022-11-03T00:01:50;14.57;;;8.30;;
25982;SDS011;13773;48.868;10.730;2022-11-03T00:04:17;14.27;;;7.87;;
25982;SDS011;13773;48.868;10.730;2022-11-03T00:06:46;17.27;;;8.33;;
25982;SDS011;13773;48.868;10.730;2022-11-03T00:09:14;9.53;;;7.03;;
25982;SDS011;13773;48.868;10.730;2022-11-03T00:11:42;12.17;;;7.53;;
25982;SDS011;13773;48.868;10.730;2022-11-03T00:14:09;13.13;;;8.17;;
25982;SDS011;13773;48.868;10.730;2022-11-03T00:16:36;17.47;;;8.23;;
25982;SDS011;13773;48.868;10.730;2022-11-03T00:19:03;16.27;;;7.97;;
25982;SDS011;13773;48.868;10.730;2022-11-03T00:21:29;13.87;;;8.40;;
25982;SDS011;13773;48.868;10.730;2022-11-03T00:23:55;16.20;;;7.30;;
25982;SDS011;13773;48.868;10.730;2022-11-03T00:26:22;20.53;;;8.63;;
25982;SDS011;13773;48.868;10.730;2022-11-03T00:28:50;15.40;;;8.90;;
25982;SDS011;13773;48.868;10.730;2022-11-03T00:31:21;13.50;;;7.97;;
25982;SDS011;13773;48.868;10.730;2022-11-03T00:33:49;15.87;;;8.80;;
25982;SDS011;13773;48.868;10.730;2022-11-03T00:36:17;14.57;;;8.03;;
25982;SDS011;13773;48.868;10.730;2022-11-03T00:38:44;15.83;;;8.20;;
25982;SDS011;13773;48.868;10.730;2022-11-03T00:41:10;16.83;;;8.80;;
25982;SDS011;13773;48.868;10.730;2022-11-03T00:43:37;13.03;;;9.47;;
25982;SDS011;13773;48.868;10.730;2022-11-03T00:46:03;16.77;;;9.67;;
25982;SDS011;13773;48.868;10.730;2022-11-03T00:48:30;15.17;;;9.07;;
25982;SDS011;13773;48.868;10.730;2022-11-03T00:53:45;18.77;;;10.40;;
25982;SDS011;13773;48.868;10.730;2022-11-03T00:56:14;16.27;;;11.63;;
25982;SDS011;13773;48.868;10.730;2022-11-03T00:58:42;22.67;;;13.07;;
25982;SDS011;13773;48.868;10.730;2022-11-03T01:01:10;16.70;;;10.60;;
25982;SDS011;13773;48.868;10.730;2022-11-03T01:03:40;17.67;;;10.30;;
25982;SDS011;13773;48.868;10.730;2022-11-03T01:06:26;20.23;;;10.47;;
25982;SDS011;13773;48.868;10.730;2022-11-03T01:09:11;13.47;;;9.10;;
25982;SDS011;13773;48.868;10.730;2022-11-03T01:11:37;14.33;;;9.17;;
25982;SDS011;13773;48.868;10.730;2022-11-03T01:14:13;14.50;;;8.80;;
25982;SDS011;13773;48.868;10.730;2022-11-03T01:16:40;15.57;;;8.73;;
25982;SDS011;13773;48.868;10.730;2022-11-03T01:19:06;16.27;;;9.30;;
25982;SDS011;13773;48.868;10.730;2022-11-03T01:21:32;14.33;;;9.07;;
25982;SDS011;13773;48.868;10.730;2022-11-03T01:24:01;15.17;;;9.27;;
25982;SDS011;13773;48.868;10.730;2022-11-03T01:26:28;15.53;;;9.20;;
25982;SDS011;13773;48.868;10.730;2022-11-03T01:28:55;16.43;;;8.30;;
25982;SDS011;13773;48.868;10.730;2022-11-03T01:31:23;12.63;;;9.00;;
25982;SDS011;13773;48.868;10.730;2022-11-03T01:33:50;16.73;;;10.53;;
25982;SDS011;13773;48.868;10.730;2022-11-03T01:36:18;15.27;;;10.07;;
25982;SDS011;13773;48.868;10.730;2022-11-03T01:38:45;19.63;;;10.50;;
25982;SDS011;13773;48.868;10.730;2022-11-03T01:41:12;19.47;;;13.37;;
25982;SDS011;13773;48.868;10.730;2022-11-03T01:43:40;17.83;;;10.17;;
25982;SDS011;13773;48.868;10.730;2022-11-03T01:48:52;16.37;;;9.77;;
25982;SDS011;13773;48.868;10.730;2022-11-03T01:51:25;19.63;;;10.80;;
25982;SDS011;13773;48.868;10.730;2022-11-03T01:53:53;14.03;;;9.70;;
25982;SDS011;13773;48.868;10.730;2022-11-03T01:56:22;16.53;;;10.30;;
25982;SDS011;13773;48.868;10.730;2022-11-03T01:58:50;16.13;;;9.97;;
25982;SDS011;13773;48.868;10.730;2022-11-03T02:01:19;16.80;;;9.90;;
25982;SDS011;13773;48.868;10.730;2022-11-03T02:03:50;17.43;;;9.30;;
25982;SDS011;13773;48.868;10.730;2022-11-03T02:06:20;14.30;;;9.33;;
25982;SDS011;13773;48.868;10.730;2022-11-03T02:08:49;15.63;;;10.03;;
25982;SDS011;13773;48.868;10.730;2022-11-03T02:11:33;17.70;;;10.43;;
25982;SDS011;13773;48.868;10.730;2022-11-03T02:14:18;14.53;;;10.43;;
25982;SDS011;13773;48.868;10.730;2022-11-03T02:16:53;19.33;;;11.43;;
25982;SDS011;13773;48.868;10.730;2022-11-03T02:26:55;18.80;;;12.27;;
25982;SDS011;13773;48.868;10.730;2022-11-03T02:29:21;21.30;;;13.20;;
25982;SDS011;13773;48.868;10.730;2022-11-03T02:31:53;20.90;;;12.23;;
25982;SDS011;13773;48.868;10.730;2022-11-03T02:34:35;20.37;;;12.97;;
25982;SDS011;13773;48.868;10.730;2022-11-03T02:37:11;17.70;;;12.03;;
25982;SDS011;13773;48.868;10.730;2022-11-03T02:42:52;31.50;;;20.00;;
25982;SDS011;13773;48.868;10.730;2022-11-03T02:45:20;25.57;;;14.87;;
25982;SDS011;13773;48.868;10.730;2022-11-03T02:47:48;26.13;;;15.63;;
25982;SDS011;13773;48.868;10.730;2022-11-03T02:50:17;29.10;;;16.27;;
25982;SDS011;13773;48.868;10.730;2022-11-03T02:52:47;23.67;;;14.77;;
25982;SDS011;13773;48.868;10.730;2022-11-03T02:57:55;21.27;;;13.73;;
25982;SDS011;13773;48.868;10.730;2022-11-03T03:00:31;21.43;;;13.53;;
25982;SDS011;13773;48.868;10.730;2022-11-03T03:03:05;20.97;;;12.40;;
25982;SDS011;13773;48.868;10.730;2022-11-03T03:05:39;20.20;;;14.37;;
25982;SDS011;13773;48.868;10.730;2022-11-03T03:08:08;23.23;;;13.53;;
25982;SDS011;13773;48.868;10.730;2022-11-03T03:10:37;22.30;;;13.93;;
25982;SDS011;13773;48.868;10.730;2022-11-03T03:13:06;19.53;;;12.67;;
25982;SDS011;13773;48.868;10.730;2022-11-03T03:15:45;20.67;;;13.27;;
25982;SDS011;13773;48.868;10.730;2022-11-03T03:18:30;25.60;;;14.97;;
25982;SDS011;13773;48.868;10.730;2022-11-03T03:23:51;24.43;;;15.40;;
25982;SDS011;13773;48.868;10.730;2022-11-03T03:26:27;25.97;;;16.20;;
25982;SDS011;13773;48.868;10.730;2022-11-03T03:29:00;25.10;;;16.17;;
25982;SDS011;13773;48.868;10.730;2022-11-03T03:31:31;26.83;;;17.83;;
25982;SDS011;13773;48.868;10.730;2022-11-03T03:34:01;23.97;;;16.37;;
25982;SDS011;13773;48.868;10.730;2022-11-03T03:36:28;27.07;;;18.27;;
25982;SDS011;13773;48.868;10.730;2022-11-03T03:38:56;27.37;;;16.50;;
25982;SDS011;13773;48.868;10.730;2022-11-03T03:41:26;27.57;;;18.43;;
25982;SDS011;13773;48.868;10.730;2022-11-03T03:43:58;32.40;;;19.13;;
25982;SDS011;13773;48.868;10.730;2022-11-03T03:46:40;30.20;;;18.20;;
25982;SDS011;13773;48.868;10.730;2022-11-03T03:49:13;30.83;;;17.33;;
25982;SDS011;13773;48.868;10.730;2022-11-03T03:51:38;26.93;;;17.10;;
25982;SDS011;13773;48.868;10.730;2022-11-03T03:54:06;31.47;;;19.47;;
25982;SDS011;13773;48.868;10.730;2022-11-03T03:56:33;30.83;;;18.03;;
25982;SDS011;13773;48.868;10.730;2022-11-03T03:59:15;43.23;;;24.10;;
25982;SDS011;13773;48.868;10.730;2022-11-03T04:01:41;35.97;;;21.10;;
25982;SDS011;13773;48.868;10.730;2022-11-03T04:04:06;28.43;;;18.53;;
25982;SDS011;13773;48.868;10.730;2022-11-03T04:06:32;28.67;;;18.47;;
25982;SDS011;13773;48.868;10.730;2022-11-03T04:08:58;29.30;;;18.07;;
25982;SDS011;13773;48.868;10.730;2022-11-03T04:11:24;28.83;;;18.57;;
25982;SDS011;13773;48.868;10.730;2022-11-03T04:14:09;29.73;;;17.30;;
25982;SDS011;13773;48.868;10.730;2022-11-03T04:16:53;28.53;;;16.57;;
25982;SDS011;13773;48.868;10.730;2022-11-03T04:19:37;30.97;;;18.03;;
25982;SDS011;13773;48.868;10.730;2022-11-03T04:22:26;44.73;;;23.40;;
25982;SDS011;13773;48.868;10.730;2022-11-03T04:24:54;28.83;;;18.07;;
25982;SDS011;13773;48.868;10.730;2022-11-03T04:27:34;29.50;;;18.70;;
25982;SDS011;13773;48.868;10.730;2022-11-03T04:32:41;38.73;;;22.50;;
25982;SDS011;13773;48.868;10.730;2022-11-03T04:35:18;31.37;;;18.50;;
25982;SDS011;13773;48.868;10.730;2022-11-03T04:37:59;29.10;;;18.80;;
25982;SDS011;13773;48.868;10.730;2022-11-03T04:40:29;29.20;;;17.83;;
25982;SDS011;13773;48.868;10.730;2022-11-03T04:42:54;30.93;;;19.40;;
25982;SDS011;13773;48.868;10.730;2022-11-03T04:45:22;28.53;;;17.17;;
25982;SDS011;13773;48.868;10.730;2022-11-03T04:47:56;29.10;;;18.27;;
25982;SDS011;13773;48.868;10.730;2022-11-03T04:50:24;33.40;;;18.77;;
25982;SDS011;13773;48.868;10.730;2022-11-03T04:52:50;32.93;;;19.23;;
25982;SDS011;13773;48.868;10.730;2022-11-03T04:55:19;32.47;;;19.53;;
25982;SDS011;13773;48.868;10.730;2022-11-03T04:57:46;32.33;;;19.90;;
25982;SDS011;13773;48.868;10.730;2022-11-03T05:00:13;31.80;;;18.90;;
25982;SDS011;13773;48.868;10.730;2022-11-03T05:02:41;32.40;;;19.70;;
25982;SDS011;13773;48.868;10.730;2022-11-03T05:05:16;34.93;;;20.60;;
25982;SDS011;13773;48.868;10.730;2022-11-03T05:07:47;39.37;;;24.23;;
25982;SDS011;13773;48.868;10.730;2022-11-03T05:10:16;34.50;;;22.50;;
25982;SDS011;13773;48.868;10.730;2022-11-03T05:12:48;40.50;;;22.43;;
25982;SDS011;13773;48.868;10.730;2022-11-03T05:17:58;38.53;;;23.33;;
25982;SDS011;13773;48.868;10.730;2022-11-03T05:20:28;40.70;;;24.67;;
25982;SDS011;13773;48.868;10.730;2022-11-03T05:22:56;45.20;;;27.10;;
25982;SDS011;13773;48.868;10.730;2022-11-03T05:28:10;49.27;;;29.17;;
25982;SDS011;13773;48.868;10.730;2022-11-03T05:30:49;56.43;;;30.70;;
25982;SDS011;13773;48.868;10.730;2022-11-03T05:33:29;42.23;;;26.97;;
25982;SDS011;13773;48.868;10.730;2022-11-03T05:35:59;45.17;;;27.03;;
25982;SDS011;13773;48.868;10.730;2022-11-03T05:38:30;43.27;;;24.80;;
25982;SDS011;13773;48.868;10.730;2022-11-03T05:40:57;44.07;;;24.93;;
25982;SDS011;13773;48.868;10.730;2022-11-03T05:43:24;45.50;;;26.60;;
25982;SDS011;13773;48.868;10.730;2022-11-03T05:45:51;43.53;;;25.77;;
25982;SDS011;13773;48.868;10.730;2022-11-03T05:51:09;43.80;;;26.30;;
25982;SDS011;13773;48.868;10.730;2022-11-03T05:53:45;48.27;;;27.13;;
25982;SDS011;13773;48.868;10.730;2022-11-03T05:56:18;45.73;;;24.90;;
25982;SDS011;13773;48.868;10.730;2022-11-03T05:58:47;44.53;;;25.27;;
25982;SDS011;13773;48.868;10.730;2022-11-03T06:03:47;52.57;;;27.53;;
25982;SDS011;13773;48.868;10.730;2022-11-03T06:06:23;49.33;;;25.77;;
25982;SDS011;13773;48.868;10.730;2022-11-03T06:08:52;51.13;;;26.53;;
25982;SDS011;13773;48.868;10.730;2022-11-03T06:11:27;59.77;;;26.90;;
25982;SDS011;13773;48.868;10.730;2022-11-03T06:13:56;47.43;;;26.00;;
25982;SDS011;13773;48.868;10.730;2022-11-03T06:19:09;49.23;;;25.63;;
25982;SDS011;13773;48.868;10.730;2022-11-03T06:21:45;50.70;;;25.53;;
25982;SDS011;13773;48.868;10.730;2022-11-03T06:24:12;49.97;;;25.67;;
25982;SDS011;13773;48.868;10.730;2022-11-03T06:26:39;44.57;;;24.30;;
25982;SDS011;13773;48.868;10.730;2022-11-03T06:29:13;44.10;;;24.90;;
25982;SDS011;13773;48.868;10.730;2022-11-03T06:31:41;46.80;;;24.10;;
25982;SDS011;13773;48.868;10.730;2022-11-03T06:37:22;45.10;;;24.17;;
25982;SDS011;13773;48.868;10.730;2022-11-03T06:39:50;53.50;;;25.73;;
25982;SDS011;13773;48.868;10.730;2022-11-03T06:42:24;53.17;;;25.63;;
25982;SDS011;13773;48.868;10.730;2022-11-03T06:44:51;45.00;;;25.67;;
25982;SDS011;13773;48.868;10.730;2022-11-03T06:49:55;49.73;;;26.43;;
25982;SDS011;13773;48.868;10.730;2022-11-03T06:52:32;49.37;;;26.17;;
25982;SDS011;13773;48.868;10.730;2022-11-03T06:57:36;46.37;;;26.63;;
25982;SDS011;13773;48.868;10.730;2022-11-03T07:05:31;49.77;;;27.40;;
25982;SDS011;13773;48.868;10.730;2022-11-03T07:07:58;50.73;;;29.00;;
25982;SDS011;13773;48.868;10.730;2022-11-03T07:10:28;55.17;;;29.27;;
25982;SDS011;13773;48.868;10.730;2022-11-03T07:12:58;64.30;;;30.60;;
25982;SDS011;13773;48.868;10.730;2022-11-03T07:15:32;51.03;;;28.03;;
25982;SDS011;13773;48.868;10.730;2022-11-03T07:18:01;49.70;;;28.80;;
25982;SDS011;13773;48.868;10.730;2022-11-03T07:20:37;49.70;;;28.30;;
25982;SDS011;13773;48.868;10.730;2022-11-03T07:23:06;51.03;;;26.67;;
25982;SDS011;13773;48.868;10.730;2022-11-03T07:25:37;45.77;;;26.90;;
25982;SDS011;13773;48.868;10.730;2022-11-03T07:28:02;43.37;;;26.67;;
25982;SDS011;13773;48.868;10.730;2022-11-03T07:30:29;48.37;;;28.40;;
25982;SDS011;13773;48.868;10.730;2022-11-03T07:32:59;50.63;;;27.30;;
25982;SDS011;13773;48.868;10.730;2022-11-03T07:35:35;49.03;;;28.77;;
25982;SDS011;13773;48.868;10.730;2022-11-03T07:38:13;51.97;;;29.93;;
25982;SDS011;13773;48.868;10.730;2022-11-03T07:40:42;51.00;;;30.93;;
25982;SDS011;13773;48.868;10.730;2022-11-03T07:43:12;51.27;;;31.20;;
25982;SDS011;13773;48.868;10.730;2022-11-03T07:45:59;56.83;;;31.63;;
25982;SDS011;13773;48.868;10.730;2022-11-03T07:56:41;58.60;;;33.03;;
25982;SDS011;13773;48.868;10.730;2022-11-03T07:59:12;62.40;;;33.27;;
25982;SDS011;13773;48.868;10.730;2022-11-03T08:01:48;57.30;;;32.30;;
25982;SDS011;13773;48.868;10.730;2022-11-03T08:04:16;66.57;;;33.37;;
25982;SDS011;13773;48.868;10.730;2022-11-03T08:06:45;66.40;;;33.80;;
25982;SDS011;13773;48.868;10.730;2022-11-03T08:09:12;64.57;;;32.63;;
25982;SDS011;13773;48.868;10.730;2022-11-03T08:11:38;60.17;;;32.53;;
25982;SDS011;13773;48.868;10.730;2022-11-03T08:14:04;62.23;;;32.83;;
25982;SDS011;13773;48.868;10.730;2022-11-03T08:16:29;84.80;;;30.63;;
25982;SDS011;13773;48.868;10.730;2022-11-03T08:18:55;64.40;;;31.17;;
25982;SDS011;13773;48.868;10.730;2022-11-03T08:21:21;60.97;;;31.57;;
25982;SDS011;13773;48.868;10.730;2022-11-03T08:23:46;75.57;;;29.37;;
25982;SDS011;13773;48.868;10.730;2022-11-03T08:26:12;56.47;;;29.20;;
25982;SDS011;13773;48.868;10.730;2022-11-03T08:28:38;59.23;;;30.37;;
25982;SDS011;13773;48.868;10.730;2022-11-03T08:31:03;52.73;;;29.13;;
25982;SDS011;13773;48.868;10.730;2022-11-03T08:33:32;55.87;;;28.87;;
25982;SDS011;13773;48.868;10.730;2022-11-03T08:35:59;50.90;;;27.83;;
25982;SDS011;13773;48.868;10.730;2022-11-03T08:38:27;62.27;;;29.50;;
25982;SDS011;13773;48.868;10.730;2022-11-03T08:40:53;62.23;;;27.87;;
25982;SDS011;13773;48.868;10.730;2022-11-03T08:43:19;52.27;;;27.07;;
25982;SDS011;13773;48.868;10.730;2022-11-03T08:45:45;50.83;;;25.77;;
25982;SDS011;13773;48.868;10.730;2022-11-03T08:48:11;47.70;;;27.70;;
25982;SDS011;13773;48.868;10.730;2022-11-03T08:50:37;51.33;;;27.17;;
25982;SDS011;13773;48.868;10.730;2022-11-03T08:53:03;46.77;;;24.97;;
25982;SDS011;13773;48.868;10.730;2022-11-03T08:55:29;45.70;;;25.50;;
25982;SDS011;13773;48.868;10.730;2022-11-03T08:57:54;39.13;;;25.63;;
25982;SDS011;13773;48.868;10.730;2022-11-03T09:00:20;51.40;;;23.63;;
25982;SDS011;13773;48.868;10.730;2022-11-03T09:02:46;40.07;;;23.90;;
25982;SDS011;13773;48.868;10.730;2022-11-03T09:05:12;33.97;;;23.33;;
25982;SDS011;13773;48.868;10.730;2022-11-03T09:07:38;37.20;;;24.90;;
25982;SDS011;13773;48.868;10.730;2022-11-03T09:10:05;33.83;;;22.37;;
25982;SDS011;13773;48.868;10.730;2022-11-03T09:12:33;30.07;;;21.40;;
25982;SDS011;13773;48.868;10.730;2022-11-03T09:14:59;30.63;;;20.33;;
25982;SDS011;13773;48.868;10.730;2022-11-03T09:17:24;35.17;;;19.67;;
25982;SDS011;13773;48.868;10.730;2022-11-03T09:19:50;26.37;;;19.83;;
25982;SDS011;13773;48.868;10.730;2022-11-03T09:22:15;29.83;;;19.07;;
25982;SDS011;13773;48.868;10.730;2022-11-03T09:24:41;26.97;;;18.87;;
25982;SDS011;13773;48.868;10.730;2022-11-03T09:27:07;27.30;;;17.93;;
25982;SDS011;13773;48.868;10.730;2022-11-03T09:29:33;25.00;;;18.17;;
25982;SDS011;13773;48.868;10.730;2022-11-03T09:31:58;28.80;;;17.70;;
25982;SDS011;13773;48.868;10.730;2022-11-03T09:34:24;28.23;;;16.90;;
25982;SDS011;13773;48.868;10.730;2022-11-03T09:36:50;20.63;;;15.57;;
25982;SDS011;13773;48.868;10.730;2022-11-03T09:39:16;21.93;;;16.37;;
25982;SDS011;13773;48.868;10.730;2022-11-03T09:41:42;21.43;;;16.97;;
25982;SDS011;13773;48.868;10.730;2022-11-03T09:44:07;25.93;;;18.17;;
25982;SDS011;13773;48.868;10.730;2022-11-03T09:46:34;22.17;;;15.47;;
25982;SDS011;13773;48.868;10.730;2022-11-03T09:49:00;23.17;;;16.60;;
25982;SDS011;13773;48.868;10.730;2022-11-03T09:51:27;18.97;;;15.57;;
25982;SDS011;13773;48.868;10.730;2022-11-03T09:53:56;20.43;;;14.83;;
25982;SDS011;13773;48.868;10.730;2022-11-03T09:56:26;17.37;;;14.27;;
25982;SDS011;13773;48.868;10.730;2022-11-03T09:58:52;17.30;;;14.60;;
25982;SDS011;13773;48.868;10.730;2022-11-03T10:01:17;16.90;;;14.33;;
25982;SDS011;13773;48.868;10.730;2022-11-03T10:03:43;18.50;;;14.20;;
25982;SDS011;13773;48.868;10.730;2022-11-03T10:06:09;14.80;;;12.97;;
25982;SDS011;13773;48.868;10.730;2022-11-03T10:08:36;14.07;;;12.57;;
25982;SDS011;13773;48.868;10.730;2022-11-03T10:11:03;15.23;;;13.10;;
25982;SDS011;13773;48.868;10.730;2022-11-03T10:13:35;16.93;;;13.13;;
25982;SDS011;13773;48.868;10.730;2022-11-03T10:16:02;14.13;;;12.67;;
25982;SDS011;13773;48.868;10.730;2022-11-03T10:18:31;14.63;;;13.13;;
25982;SDS011;13773;48.868;10.730;2022-11-03T10:21:00;13.97;;;12.40;;
25982;SDS011;13773;48.868;10.730;2022-11-03T10:23:31;12.63;;;11.30;;
25982;SDS011;13773;48.868;10.730;2022-11-03T10:26:10;12.67;;;11.37;;
25982;SDS011;13773;48.868;10.730;2022-11-03T10:28:38;21.17;;;12.13;;
25982;SDS011;13773;48.868;10.730;2022-11-03T10:31:05;12.77;;;11.47;;
25982;SDS011;13773;48.868;10.730;2022-11-03T10:33:52;13.40;;;11.60;;
25982;SDS011;13773;48.868;10.730;2022-11-03T10:38:47;12.83;;;10.50;;
25982;SDS011;13773;48.868;10.730;2022-11-03T10:41:20;11.53;;;10.33;;
25982;SDS011;13773;48.868;10.730;2022-11-03T10:46:35;13.80;;;11.80;;
25982;SDS011;13773;48.868;10.730;2022-11-03T10:51:36;11.60;;;10.33;;
25982;SDS011;13773;48.868;10.730;2022-11-03T10:54:03;11.60;;;10.40;;
25982;SDS011;13773;48.868;10.730;2022-11-03T10:56:30;12.00;;;10.53;;
25982;SDS011;13773;48.868;10.730;2022-11-03T10:58:57;12.47;;;10.60;;
25982;SDS011;13773;48.868;10.730;2022-11-03T11:01:24;14.50;;;10.70;;
25982;SDS011;13773;48.868;10.730;2022-11-03T11:03:50;14.60;;;11.37;;
25982;SDS011;13773;48.868;10.730;2022-11-03T11:06:28;17.73;;;10.43;;
25982;SDS011;13773;48.868;10.730;2022-11-03T11:09:02;12.10;;;10.90;;
25982;SDS011;13773;48.868;10.730;2022-11-03T11:11:29;11.60;;;10.40;;
25982;SDS011;13773;48.868;10.730;2022-11-03T11:16:56;12.00;;;10.10;;
25982;SDS011;13773;48.868;10.730;2022-11-03T11:19:23;11.93;;;10.10;;
25982;SDS011;13773;48.868;10.730;2022-11-03T11:30:00;9.50;;;8.33;;
25982;SDS011;13773;48.868;10.730;2022-11-03T11:37:55;9.60;;;8.57;;
25982;SDS011;13773;48.868;10.730;2022-11-03T11:40:51;10.63;;;9.33;;
25982;SDS011;13773;48.868;10.730;2022-11-03T11:51:24;13.90;;;11.03;;
25982;SDS011;13773;48.868;10.730;2022-11-03T11:53:51;11.37;;;9.97;;
25982;SDS011;13773;48.868;10.730;2022-11-03T11:56:17;10.70;;;9.60;;
25982;SDS011;13773;48.868;10.730;2022-11-03T11:58:47;11.03;;;9.63;;
25982;SDS011;13773;48.868;10.730;2022-11-03T12:01:34;11.40;;;9.90;;
25982;SDS011;13773;48.868;10.730;2022-11-03T12:04:04;11.20;;;9.50;;
25982;SDS011;13773;48.868;10.730;2022-11-03T12:06:41;12.13;;;9.97;;
25982;SDS011;13773;48.868;10.730;2022-11-03T12:09:20;11.07;;;9.63;;
25982;SDS011;13773;48.868;10.730;2022-11-03T12:11:48;11.73;;;10.53;;
25982;SDS011;13773;48.868;10.730;2022-11-03T12:16:56;13.87;;;10.90;;
25982;SDS011;13773;48.868;10.730;2022-11-03T12:19:43;12.10;;;10.87;;
25982;SDS011;13773;48.868;10.730;2022-11-03T12:22:10;11.83;;;10.63;;
25982;SDS011;13773;48.868;10.730;2022-11-03T12:25:00;11.67;;;10.57;;
25982;SDS011;13773;48.868;10.730;2022-11-03T12:29:57;13.00;;;10.83;;
25982;SDS011;13773;48.868;10.730;2022-11-03T12:32:24;11.57;;;10.37;;
25982;SDS011;13773;48.868;10.730;2022-11-03T12:34:51;11.63;;;9.93;;
25982;SDS011;13773;48.868;10.730;2022-11-03T12:37:20;10.67;;;9.67;;
25982;SDS011;13773;48.868;10.730;2022-11-03T12:39:46;10.97;;;9.97;;
25982;SDS011;13773;48.868;10.730;2022-11-03T12:42:11;11.93;;;9.83;;
25982;SDS011;13773;48.868;10.730;2022-11-03T12:44:37;11.13;;;9.87;;
25982;SDS011;13773;48.868;10.730;2022-11-03T12:47:03;11.77;;;10.33;;
25982;SDS011;13773;48.868;10.730;2022-11-03T12:49:28;12.73;;;10.90;;
25982;SDS011;13773;48.868;10.730;2022-11-03T12:51:54;13.80;;;11.93;;
25982;SDS011;13773;48.868;10.730;2022-11-03T12:54:22;11.77;;;10.57;;
25982;SDS011;13773;48.868;10.730;2022-11-03T12:56:47;11.67;;;10.57;;
25982;SDS011;13773;48.868;10.730;2022-11-03T12:59:14;12.67;;;11.37;;
25982;SDS011;13773;48.868;10.730;2022-11-03T13:01:40;12.70;;;11.43;;
25982;SDS011;13773;48.868;10.730;2022-11-03T13:04:06;14.27;;;12.37;;
25982;SDS011;13773;48.868;10.730;2022-11-03T13:06:32;16.20;;;12.60;;
25982;SDS011;13773;48.868;10.730;2022-11-03T13:08:58;15.03;;;12.47;;
25982;SDS011;13773;48.868;10.730;2022-11-03T13:11:24;15.20;;;13.60;;
25982;SDS011;13773;48.868;10.730;2022-11-03T13:14:08;13.07;;;11.67;;
25982;SDS011;13773;48.868;10.730;2022-11-03T13:16:47;14.50;;;12.77;;
25982;SDS011;13773;48.868;10.730;2022-11-03T13:19:12;16.13;;;13.33;;
25982;SDS011;13773;48.868;10.730;2022-11-03T13:21:38;14.67;;;13.17;;
25982;SDS011;13773;48.868;10.730;2022-11-03T13:24:04;14.53;;;13.03;;
25982;SDS011;13773;48.868;10.730;2022-11-03T13:26:31;16.60;;;14.00;;
25982;SDS011;13773;48.868;10.730;2022-11-03T13:28:57;15.07;;;13.33;;
25982;SDS011;13773;48.868;10.730;2022-11-03T13:31:22;14.67;;;13.07;;
25982;SDS011;13773;48.868;10.730;2022-11-03T13:33:49;15.27;;;12.73;;
25982;SDS011;13773;48.868;10.730;2022-11-03T13:36:16;16.30;;;14.60;;
25982;SDS011;13773;48.868;10.730;2022-11-03T13:38:42;16.47;;;14.37;;
25982;SDS011;13773;48.868;10.730;2022-11-03T13:41:07;18.17;;;13.80;;
25982;SDS011;13773;48.868;10.730;2022-11-03T13:43:33;16.70;;;14.90;;
25982;SDS011;13773;48.868;10.730;2022-11-03T13:45:59;14.33;;;12.83;;
25982;SDS011;13773;48.868;10.730;2022-11-03T13:48:26;14.97;;;13.37;;
25982;SDS011;13773;48.868;10.730;2022-11-03T13:50:52;16.53;;;13.87;;
25982;SDS011;13773;48.868;10.730;2022-11-03T13:53:19;15.77;;;13.87;;
25982;SDS011;13773;48.868;10.730;2022-11-03T13:55:45;14.33;;;12.83;;
25982;SDS011;13773;48.868;10.730;2022-11-03T13:58:11;15.40;;;13.77;;
25982;SDS011;13773;48.868;10.730;2022-11-03T14:00:37;17.17;;;13.57;;
25982;SDS011;13773;48.868;10.730;2022-11-03T14:03:02;15.67;;;13.27;;
25982;SDS011;13773;48.868;10.730;2022-11-03T14:05:28;15.03;;;13.50;;
25982;SDS011;13773;48.868;10.730;2022-11-03T14:07:54;16.27;;;14.57;;
25982;SDS011;13773;48.868;10.730;2022-11-03T14:10:21;15.50;;;13.87;;
25982;SDS011;13773;48.868;10.730;2022-11-03T14:12:46;16.30;;;14.57;;
25982;SDS011;13773;48.868;10.730;2022-11-03T14:15:12;16.60;;;14.80;;
25982;SDS011;13773;48.868;10.730;2022-11-03T14:17:38;16.77;;;15.00;;
25982;SDS011;13773;48.868;10.730;2022-11-03T14:20:04;16.60;;;14.73;;
25982;SDS011;13773;48.868;10.730;2022-11-03T14:22:35;20.27;;;15.70;;
25982;SDS011;13773;48.868;10.730;2022-11-03T14:25:01;19.97;;;16.67;;
25982;SDS011;13773;48.868;10.730;2022-11-03T14:27:27;18.20;;;15.60;;
25982;SDS011;13773;48.868;10.730;2022-11-03T14:29:53;18.53;;;15.20;;
25982;SDS011;13773;48.868;10.730;2022-11-03T14:32:18;17.57;;;15.77;;
25982;SDS011;13773;48.868;10.730;2022-11-03T14:34:44;19.37;;;15.90;;
25982;SDS011;13773;48.868;10.730;2022-11-03T14:37:13;18.10;;;16.10;;
25982;SDS011;13773;48.868;10.730;2022-11-03T14:39:39;16.83;;;15.00;;
25982;SDS011;13773;48.868;10.730;2022-11-03T14:42:05;19.17;;;15.67;;
25982;SDS011;13773;48.868;10.730;2022-11-03T14:44:38;18.23;;;15.17;;
25982;SDS011;13773;48.868;10.730;2022-11-03T14:47:05;19.07;;;15.93;;
25982;SDS011;13773;48.868;10.730;2022-11-03T14:49:33;17.77;;;15.67;;
25982;SDS011;13773;48.868;10.730;2022-11-03T14:51:59;18.63;;;15.00;;
25982;SDS011;13773;48.868;10.730;2022-11-03T14:54:27;20.10;;;16.70;;
25982;SDS011;13773;48.868;10.730;2022-11-03T14:56:53;19.07;;;17.00;;
25982;SDS011;13773;48.868;10.730;2022-11-03T14:59:19;20.20;;;16.97;;
25982;SDS011;13773;48.868;10.730;2022-11-03T15:01:46;21.13;;;17.10;;
25982;SDS011;13773;48.868;10.730;2022-11-03T15:04:12;22.60;;;17.57;;
25982;SDS011;13773;48.868;10.730;2022-11-03T15:06:40;21.63;;;18.60;;
25982;SDS011;13773;48.868;10.730;2022-11-03T15:09:07;23.57;;;18.73;;
25982;SDS011;13773;48.868;10.730;2022-11-03T15:11:33;32.07;;;18.20;;
25982;SDS011;13773;48.868;10.730;2022-11-03T15:13:59;22.83;;;18.17;;
25982;SDS011;13773;48.868;10.730;2022-11-03T15:16:26;22.53;;;17.77;;
25982;SDS011;13773;48.868;10.730;2022-11-03T15:18:52;21.80;;;17.40;;
25982;SDS011;13773;48.868;10.730;2022-11-03T15:21:17;20.53;;;17.60;;
25982;SDS011;13773;48.868;10.730;2022-11-03T15:23:43;22.27;;;18.23;;
25982;SDS011;13773;48.868;10.730;2022-11-03T15:26:09;21.10;;;17.90;;
25982;SDS011;13773;48.868;10.730;2022-11-03T15:28:36;22.00;;;17.93;;
25982;SDS011;13773;48.868;10.730;2022-11-03T15:31:02;21.20;;;17.73;;
25982;SDS011;13773;48.868;10.730;2022-11-03T15:33:28;26.43;;;19.00;;
25982;SDS011;13773;48.868;10.730;2022-11-03T15:35:54;29.17;;;19.87;;
25982;SDS011;13773;48.868;10.730;2022-11-03T15:38:21;34.07;;;19.43;;
25982;SDS011;13773;48.868;10.730;2022-11-03T15:40:47;31.30;;;18.87;;
25982;SDS011;13773;48.868;10.730;2022-11-03T15:43:12;22.23;;;18.20;;
25982;SDS011;13773;48.868;10.730;2022-11-03T15:45:38;21.57;;;18.57;;
25982;SDS011;13773;48.868;10.730;2022-11-03T15:48:04;22.40;;;18.77;;
25982;SDS011;13773;48.868;10.730;2022-11-03T15:50:30;22.47;;;18.37;;
25982;SDS011;13773;48.868;10.730;2022-11-03T15:52:58;21.53;;;18.13;;
25982;SDS011;13773;48.868;10.730;2022-11-03T15:55:24;21.67;;;18.40;;
25982;SDS011;13773;48.868;10.730;2022-11-03T15:57:50;22.23;;;18.27;;
25982;SDS011;13773;48.868;10.730;2022-11-03T16:00:16;22.17;;;18.13;;